createdAt,value
2019-03-19T00:00:30.553Z,101459.00
2019-03-19T00:02:59.713Z,101457.69
2019-03-19T00:05:28.768Z,101458.50
2019-03-19T00:07:57.850Z,101465.05
2019-03-19T00:10:26.908Z,101469.86
2019-03-19T00:12:55.986Z,101465.94
2019-03-19T00:15:25.045Z,101472.02
2019-03-19T00:17:54.123Z,101475.03
2019-03-19T00:20:23.114Z,101472.76
2019-03-19T00:22:52.204Z,101481.38
2019-03-19T00:25:29.494Z,101479.16
2019-03-19T00:27:52.082Z,101485.66
2019-03-19T00:30:21.150Z,101475.11
2019-03-19T00:32:50.230Z,101484.35
2019-03-19T00:35:19.286Z,101477.73
2019-03-19T00:37:48.369Z,101483.36
2019-03-19T00:40:17.635Z,101480.28
2019-03-19T00:42:46.631Z,101477.58
2019-03-19T00:45:15.693Z,101481.09
2019-03-19T00:47:44.811Z,101480.05
2019-03-19T00:50:13.901Z,101490.87
2019-03-19T00:52:42.982Z,101490.87
2019-03-19T00:55:12.209Z,101496.57
2019-03-19T00:57:41.289Z,101496.84
2019-03-19T01:00:10.671Z,101504.38
2019-03-19T01:02:39.746Z,101501.77
2019-03-19T01:05:09.152Z,101496.45
2019-03-19T01:07:38.226Z,101500.38
2019-03-19T01:10:07.564Z,101504.23
2019-03-19T01:12:36.630Z,101502.42
2019-03-19T01:15:06.906Z,101504.97
2019-03-19T01:17:35.966Z,101504.97
2019-03-19T01:20:05.599Z,101499.73
2019-03-19T01:22:35.124Z,101500.16
2019-03-19T01:25:04.724Z,101507.13
2019-03-19T01:27:33.893Z,101505.31
2019-03-19T01:30:02.935Z,101497.80
2019-03-19T01:32:32.009Z,101502.20
2019-03-19T01:35:01.071Z,101501.38
2019-03-19T01:37:30.089Z,101504.50
2019-03-19T01:39:59.072Z,101497.95
2019-03-19T01:42:28.075Z,101495.80
2019-03-19T01:44:57.050Z,101495.53
2019-03-19T01:47:26.142Z,101498.80
2019-03-19T01:49:55.142Z,101499.41
2019-03-19T01:52:24.162Z,101500.80
2019-03-19T01:54:53.066Z,101501.69
2019-03-19T01:57:22.077Z,101499.72
2019-03-19T01:59:51.123Z,101503.80
2019-03-19T02:02:20.215Z,101502.59
2019-03-19T02:04:49.276Z,101504.95
2019-03-19T02:07:18.365Z,101511.56
2019-03-19T02:09:47.358Z,101518.76
2019-03-19T02:12:16.442Z,101519.15
2019-03-19T02:14:45.492Z,101522.27
2019-03-19T02:17:14.574Z,101529.31
2019-03-19T02:19:43.633Z,101538.05
2019-03-19T02:22:12.632Z,101537.63
2019-03-19T02:24:41.684Z,101531.43
2019-03-19T02:27:10.761Z,101537.09
2019-03-19T02:29:39.749Z,101530.12
2019-03-19T02:32:08.750Z,101544.03
2019-03-19T02:34:37.809Z,101545.30
2019-03-19T02:37:06.880Z,101543.98
2019-03-19T02:39:35.924Z,101546.53
2019-03-19T02:42:05.018Z,101547.34
2019-03-19T02:44:34.008Z,101559.13
2019-03-19T02:47:03.084Z,101562.09
2019-03-19T02:49:32.170Z,101553.28
2019-03-19T02:52:01.285Z,101565.06
2019-03-19T02:54:30.306Z,101572.00
2019-03-19T02:56:59.389Z,101575.92
2019-03-19T02:59:28.453Z,101575.04
2019-03-19T03:01:57.529Z,101582.16
2019-03-19T03:04:26.616Z,101588.75
2019-03-19T03:06:57.120Z,101591.38
2019-03-19T03:09:26.178Z,101593.25
2019-03-19T03:11:55.260Z,101601.19
2019-03-19T03:14:24.335Z,101596.84
2019-03-19T03:16:53.388Z,101606.08
2019-03-19T03:19:22.460Z,101606.23
2019-03-19T03:21:51.526Z,101611.20
2019-03-19T03:24:20.600Z,101603.42
2019-03-19T03:26:49.659Z,101606.58
2019-03-19T03:29:18.960Z,101609.27
2019-03-19T03:31:48.027Z,101612.47
2019-03-19T03:34:17.040Z,101612.94
2019-03-19T03:36:46.093Z,101619.56
2019-03-19T03:39:15.172Z,101612.66
2019-03-19T03:41:44.236Z,101608.00
2019-03-19T03:44:13.311Z,101606.76
2019-03-19T03:46:42.292Z,101613.31
2019-03-19T03:49:11.317Z,101612.89
2019-03-19T03:51:40.311Z,101615.16
2019-03-19T03:54:09.402Z,101619.52
2019-03-19T03:56:38.461Z,101610.27
2019-03-19T03:59:07.546Z,101626.48
2019-03-19T04:01:36.603Z,101628.53
2019-03-19T04:04:05.791Z,101631.50
2019-03-19T04:06:34.847Z,101630.69
2019-03-19T04:09:08.843Z,101636.32
2019-03-19T04:11:36.089Z,101638.86
2019-03-19T04:14:05.176Z,101639.63
2019-03-19T04:16:34.310Z,101647.91
2019-03-19T04:19:03.398Z,101653.55
2019-03-19T04:21:32.461Z,101661.33
2019-03-19T04:24:01.543Z,101662.52
2019-03-19T04:26:30.587Z,101661.59
2019-03-19T04:28:59.666Z,101665.05
2019-03-19T04:31:28.745Z,101661.39
2019-03-19T04:33:57.826Z,101663.94
2019-03-19T04:36:26.898Z,101664.13
2019-03-19T04:38:55.903Z,101658.89
2019-03-19T04:41:24.957Z,101660.92
2019-03-19T04:43:54.046Z,101652.99
2019-03-19T04:46:23.108Z,101669.55
2019-03-19T04:48:52.062Z,101677.80
2019-03-19T04:51:21.138Z,101675.59
2019-03-19T04:53:50.151Z,101678.64
2019-03-19T04:56:19.208Z,101677.75
2019-03-19T04:58:48.266Z,101686.96
2019-03-19T05:01:17.356Z,101682.23
2019-03-19T05:03:46.419Z,101684.42
2019-03-19T05:06:15.432Z,101684.03
2019-03-19T05:08:44.423Z,101681.07
2019-03-19T05:11:13.510Z,101688.51
2019-03-19T05:13:42.495Z,101697.25
2019-03-19T05:16:11.503Z,101697.34
2019-03-19T05:18:40.564Z,101707.89
2019-03-19T05:21:09.651Z,101708.86
2019-03-19T05:23:38.627Z,101709.28
2019-03-19T05:26:07.722Z,101704.54
2019-03-19T05:28:36.794Z,101715.09
2019-03-19T05:31:05.869Z,101715.56
2019-03-19T05:33:34.863Z,101709.94
2019-03-19T05:36:03.941Z,101720.41
2019-03-19T05:38:32.928Z,101723.03
2019-03-19T05:41:02.014Z,101731.78
2019-03-19T05:43:31.068Z,101733.09
2019-03-19T05:46:00.167Z,101735.98
2019-03-19T05:48:29.177Z,101739.98
2019-03-19T05:50:58.259Z,101747.84
2019-03-19T05:53:27.241Z,101748.15
2019-03-19T05:55:56.326Z,101753.00
2019-03-19T05:58:25.316Z,101745.95
2019-03-19T06:00:54.402Z,101748.91
2019-03-19T06:03:23.450Z,101747.19
2019-03-19T06:05:52.529Z,101746.63
2019-03-19T06:08:21.594Z,101752.34
2019-03-19T06:10:50.671Z,101756.27
2019-03-19T06:13:19.722Z,101759.89
2019-03-19T06:15:48.801Z,101769.53
2019-03-19T06:18:17.793Z,101764.29
2019-03-19T06:20:46.879Z,101767.88
2019-03-19T06:23:15.943Z,101773.12
2019-03-19T06:25:44.952Z,101769.77
2019-03-19T06:28:13.942Z,101772.94
2019-03-19T06:30:42.963Z,101768.36
2019-03-19T06:33:11.949Z,101777.73
2019-03-19T06:35:41.034Z,101785.83
2019-03-19T06:38:10.095Z,101793.42
2019-03-19T06:40:39.172Z,101807.19
2019-03-19T06:43:08.154Z,101807.81
2019-03-19T06:45:37.236Z,101805.27
2019-03-19T06:48:06.324Z,101814.61
2019-03-19T06:50:44.793Z,101806.74
2019-03-19T06:53:06.220Z,101819.93
2019-03-19T06:55:35.308Z,101820.89
2019-03-19T06:58:10.938Z,101809.91
2019-03-19T07:00:35.225Z,101813.19
2019-03-19T07:03:04.397Z,101819.91
2019-03-19T07:05:33.470Z,101818.33
2019-03-19T07:08:02.529Z,101825.08
2019-03-19T07:10:31.609Z,101837.45
2019-03-19T07:13:00.660Z,101829.17
2019-03-19T07:15:29.753Z,101842.02
2019-03-19T07:17:58.743Z,101840.44
2019-03-19T07:20:27.839Z,101842.79
2019-03-19T07:22:56.889Z,101845.18
2019-03-19T07:25:25.978Z,101833.58
2019-03-19T07:27:55.113Z,101843.80
2019-03-19T07:30:24.292Z,101838.78
2019-03-19T07:32:53.352Z,101845.58
2019-03-19T07:35:22.361Z,101849.31
2019-03-19T07:37:51.412Z,101844.76
2019-03-19T07:40:20.502Z,101836.84
2019-03-19T07:42:49.556Z,101836.22
2019-03-19T07:45:18.741Z,101844.12
2019-03-19T07:47:47.800Z,101850.55
2019-03-19T07:50:16.955Z,101857.37
2019-03-19T07:52:46.018Z,101870.37
2019-03-19T07:55:15.113Z,101867.47
2019-03-19T07:57:44.179Z,101869.01
2019-03-19T08:00:14.704Z,101879.73
2019-03-19T08:02:43.769Z,101883.89
2019-03-19T08:05:12.811Z,101890.10
2019-03-19T08:07:41.885Z,101890.17
2019-03-19T08:10:10.973Z,101897.78
2019-03-19T08:12:40.153Z,101895.02
2019-03-19T08:15:10.794Z,101891.76
2019-03-19T08:17:39.930Z,101891.69
2019-03-19T08:20:10.895Z,101902.20
2019-03-19T08:22:39.977Z,101897.84
2019-03-19T08:25:10.033Z,101907.84
2019-03-19T08:27:39.042Z,101910.33
2019-03-19T08:30:10.493Z,101916.33
2019-03-19T08:32:39.572Z,101918.81
2019-03-19T08:35:08.736Z,101921.29
2019-03-19T08:37:37.820Z,101927.42
2019-03-19T08:40:07.906Z,101929.91
2019-03-19T08:42:36.986Z,101925.44
2019-03-19T08:45:06.904Z,101937.22
2019-03-19T08:47:35.835Z,101929.95
2019-03-19T08:50:05.590Z,101932.98
2019-03-19T08:52:34.603Z,101941.80
2019-03-19T08:55:03.703Z,101936.81
2019-03-19T08:57:32.784Z,101931.44
2019-03-19T09:00:01.783Z,101938.44
2019-03-19T09:02:30.787Z,101932.59
2019-03-19T09:04:59.779Z,101931.48
2019-03-19T09:07:28.857Z,101940.34
2019-03-19T09:09:57.926Z,101938.20
2019-03-19T09:12:26.930Z,101944.79
2019-03-19T09:14:55.910Z,101943.19
2019-03-19T09:17:24.923Z,101947.39
2019-03-19T09:19:53.987Z,101945.87
2019-03-19T09:22:23.073Z,101939.86
2019-03-19T09:24:52.089Z,101949.72
2019-03-19T09:27:21.167Z,101946.62
2019-03-19T09:29:50.227Z,101949.58
2019-03-19T09:32:19.328Z,101955.04
2019-03-19T09:34:48.383Z,101966.66
2019-03-19T09:37:17.473Z,101971.36
2019-03-19T09:39:46.529Z,101973.56
2019-03-19T09:42:15.606Z,101974.33
2019-03-19T09:44:44.658Z,101969.47
2019-03-19T09:47:13.750Z,101966.69
2019-03-19T09:49:42.832Z,101956.30
2019-03-19T09:52:11.926Z,101956.89
2019-03-19T09:54:40.987Z,101963.75
2019-03-19T09:57:10.066Z,101964.26
2019-03-19T09:59:39.151Z,101964.97
2019-03-19T10:02:08.230Z,101962.77
2019-03-19T10:04:37.301Z,101964.46
2019-03-19T10:07:06.676Z,101966.31
2019-03-19T10:09:35.840Z,101968.28
2019-03-19T10:12:04.950Z,101957.17
2019-03-19T10:14:34.001Z,101969.67
2019-03-19T10:17:03.084Z,101958.98
2019-03-19T10:19:32.138Z,101967.81
2019-03-19T10:22:01.274Z,101953.58
2019-03-19T10:24:30.322Z,101955.24
2019-03-19T10:26:59.327Z,101964.41
2019-03-19T10:29:37.854Z,101972.06
2019-03-19T10:31:59.195Z,101968.23
2019-03-19T10:34:28.188Z,101975.69
2019-03-19T10:36:57.304Z,101963.35
2019-03-19T10:39:26.281Z,101963.30
2019-03-19T10:41:55.368Z,101963.75
2019-03-19T10:44:24.439Z,101962.03
2019-03-19T10:46:53.443Z,101961.83
2019-03-19T10:49:22.524Z,101965.46
2019-03-19T10:51:51.606Z,101967.41
2019-03-19T10:54:20.680Z,101977.54
2019-03-19T10:56:49.767Z,101977.48
2019-03-19T10:59:18.772Z,101992.69
2019-03-19T11:01:47.849Z,102002.34
2019-03-19T11:04:16.909Z,101999.64
2019-03-19T11:06:46.003Z,102010.87
2019-03-19T11:09:15.077Z,102008.50
2019-03-19T11:11:44.215Z,102003.78
2019-03-19T11:14:13.273Z,101999.25
2019-03-19T11:16:42.344Z,101995.94
2019-03-19T11:19:11.434Z,101999.91
2019-03-19T11:21:40.492Z,102004.75
2019-03-19T11:24:09.570Z,102018.77
2019-03-19T11:26:38.553Z,102016.58
2019-03-19T11:29:07.561Z,102020.11
2019-03-19T11:31:36.629Z,102018.77
2019-03-19T11:34:05.738Z,102017.47
2019-03-19T11:36:34.803Z,102021.09
2019-03-19T11:39:05.520Z,102022.03
2019-03-19T11:41:34.513Z,102020.17
2019-03-19T11:44:03.597Z,102008.61
2019-03-19T11:46:32.673Z,102015.27
2019-03-19T11:49:01.779Z,102019.55
2019-03-19T11:51:30.842Z,102025.28
2019-03-19T11:53:59.857Z,102021.94
2019-03-19T11:56:28.915Z,102022.05
2019-03-19T11:58:57.995Z,102018.14
2019-03-19T12:01:27.062Z,102013.85
2019-03-19T12:03:56.138Z,102014.87
2019-03-19T12:06:25.191Z,102020.52
2019-03-19T12:08:54.272Z,102020.03
2019-03-19T12:11:23.346Z,102020.96
2019-03-19T12:13:52.437Z,102020.96
2019-03-19T12:16:21.438Z,102024.98
2019-03-19T12:18:50.559Z,102022.78
2019-03-19T12:21:19.604Z,102025.73
2019-03-19T12:23:48.688Z,102023.39
2019-03-19T12:26:17.754Z,102012.14
2019-03-19T12:28:47.023Z,102019.11
2019-03-19T12:31:16.068Z,102021.98
2019-03-19T12:33:45.157Z,102021.49
2019-03-19T12:36:14.155Z,102024.61
2019-03-19T12:38:43.246Z,102019.97
2019-03-19T12:41:12.296Z,102006.55
2019-03-19T12:43:41.387Z,102017.55
2019-03-19T12:46:10.459Z,102018.64
2019-03-19T12:48:39.551Z,102020.25
2019-03-19T12:51:08.541Z,102021.90
2019-03-19T12:53:37.617Z,102020.45
2019-03-19T12:56:06.677Z,102028.84
2019-03-19T12:58:35.681Z,102025.74
2019-03-19T13:01:04.898Z,102028.03
2019-03-19T13:03:34.030Z,102021.78
2019-03-19T13:06:03.027Z,102017.94
2019-03-19T13:08:32.116Z,102023.84
2019-03-19T13:11:01.128Z,102006.61
2019-03-19T13:13:30.218Z,102005.12
2019-03-19T13:15:59.282Z,102005.66
2019-03-19T13:18:28.298Z,102006.87
2019-03-19T13:20:57.366Z,102008.73
2019-03-19T13:23:26.461Z,102015.41
2019-03-19T13:25:56.821Z,102007.44
2019-03-19T13:28:26.006Z,102012.25
2019-03-19T13:30:55.012Z,102007.21
2019-03-19T13:33:24.101Z,102005.27
2019-03-19T13:35:53.162Z,102002.45
2019-03-19T13:38:22.252Z,102004.48
2019-03-19T13:40:51.328Z,102004.74
2019-03-19T13:43:20.351Z,102007.59
2019-03-19T13:45:49.417Z,102003.81
2019-03-19T13:48:18.513Z,102008.08
2019-03-19T13:50:47.595Z,102015.45
2019-03-19T13:53:16.678Z,102021.10
2019-03-19T13:55:45.749Z,102016.06
2019-03-19T13:58:14.843Z,102024.47
2019-03-19T14:00:43.920Z,102026.13
2019-03-19T14:03:12.998Z,102025.06
2019-03-19T14:05:42.056Z,102035.30
2019-03-19T14:08:11.128Z,102030.20
2019-03-19T14:10:40.213Z,102036.55
2019-03-19T14:13:09.304Z,102045.23
2019-03-19T14:15:38.352Z,102046.36
2019-03-19T14:18:07.419Z,102045.11
2019-03-19T14:20:36.510Z,102039.73
2019-03-19T14:23:05.673Z,102038.36
2019-03-19T14:25:34.690Z,102044.06
2019-03-19T14:28:03.759Z,102043.55
2019-03-19T14:30:32.763Z,102044.30
2019-03-19T14:33:01.821Z,102042.05
2019-03-19T14:35:37.267Z,102034.45
2019-03-19T14:38:01.671Z,102038.34
2019-03-19T14:40:30.860Z,102034.64
2019-03-19T14:43:01.425Z,102041.14
2019-03-19T14:45:30.706Z,102040.61
2019-03-19T14:47:59.776Z,102042.64
2019-03-19T14:50:28.895Z,102039.77
2019-03-19T14:52:57.947Z,102041.36
2019-03-19T14:55:27.034Z,102038.09
2019-03-19T14:57:56.093Z,102045.46
2019-03-19T15:00:25.180Z,102049.83
2019-03-19T15:02:54.257Z,102052.02
2019-03-19T15:05:23.339Z,102041.44
2019-03-19T15:07:52.411Z,102061.13
2019-03-19T15:10:21.491Z,102049.12
2019-03-19T15:12:50.551Z,102062.35
2019-03-19T15:15:19.648Z,102054.37
2019-03-19T15:17:48.716Z,102060.53
2019-03-19T15:20:18.365Z,102069.75
2019-03-19T15:22:47.422Z,102069.23
2019-03-19T15:25:16.505Z,102069.17
2019-03-19T15:27:45.567Z,102060.79
2019-03-19T15:30:14.840Z,102063.78
2019-03-19T15:32:43.923Z,102071.63
2019-03-19T15:35:13.006Z,102075.94
2019-03-19T15:37:42.053Z,102075.80
2019-03-19T15:40:12.456Z,102076.97
2019-03-19T15:42:41.512Z,102072.94
2019-03-19T15:45:11.459Z,102074.63
2019-03-19T15:47:40.513Z,102079.41
2019-03-19T15:50:12.006Z,102076.28
2019-03-19T15:52:41.061Z,102074.45
2019-03-19T15:55:11.063Z,102083.38
2019-03-19T15:57:40.099Z,102085.14
2019-03-19T16:00:12.500Z,102084.22
2019-03-19T16:02:41.555Z,102087.69
2019-03-19T16:05:11.101Z,102089.35
2019-03-19T16:07:40.180Z,102089.20
2019-03-19T16:10:09.590Z,102086.89
2019-03-19T16:12:38.657Z,102093.41
2019-03-19T16:15:08.803Z,102093.36
2019-03-19T16:17:37.870Z,102099.87
2019-03-19T16:20:08.630Z,102099.37
2019-03-19T16:22:37.689Z,102104.61
2019-03-19T16:25:06.921Z,102105.83
2019-03-19T16:27:35.911Z,102106.64
2019-03-19T16:30:05.642Z,102104.78
2019-03-19T16:32:34.716Z,102112.23
2019-03-19T16:35:03.903Z,102113.89
2019-03-19T16:37:58.533Z,102121.70
2019-03-19T16:40:27.611Z,102122.48
2019-03-19T16:42:56.672Z,102127.20
2019-03-19T16:45:25.756Z,102139.99
2019-03-19T16:47:54.812Z,102136.03
2019-03-19T16:50:23.941Z,102142.08
2019-03-19T16:52:53.010Z,102141.97
2019-03-19T16:55:22.094Z,102143.67
2019-03-19T16:57:51.155Z,102147.09
2019-03-19T17:00:20.256Z,102156.67
2019-03-19T17:02:49.249Z,102150.88
2019-03-19T17:05:18.380Z,102158.32
2019-03-19T17:07:47.433Z,102164.44
2019-03-19T17:10:16.949Z,102152.41
2019-03-19T17:12:46.009Z,102168.27
2019-03-19T17:15:15.495Z,102158.91
2019-03-19T17:17:44.594Z,102167.67
2019-03-19T17:20:13.739Z,102177.30
2019-03-19T17:22:42.802Z,102177.67
2019-03-19T17:25:13.475Z,102185.55
2019-03-19T17:27:42.632Z,102187.70
2019-03-19T17:30:17.615Z,102187.19
2019-03-19T17:32:46.687Z,102192.84
2019-03-19T17:35:15.780Z,102199.80
2019-03-19T17:38:02.580Z,102202.38
2019-03-19T17:40:40.983Z,102203.19
2019-03-19T17:43:02.442Z,102212.38
2019-03-19T17:45:31.536Z,102209.56
2019-03-19T17:48:00.657Z,102209.48
2019-03-19T17:50:29.651Z,102219.50
2019-03-19T17:52:58.647Z,102221.64
2019-03-19T17:55:27.657Z,102226.91
2019-03-19T17:57:56.724Z,102227.73
2019-03-19T18:00:26.846Z,102227.55
2019-03-19T18:02:55.908Z,102232.72
2019-03-19T18:05:24.999Z,102232.20
2019-03-19T18:07:54.063Z,102228.55
2019-03-19T18:10:23.147Z,102235.47
2019-03-19T18:12:52.208Z,102240.63
2019-03-19T18:15:21.299Z,102248.73
2019-03-19T18:17:50.355Z,102249.80
2019-03-19T18:20:19.444Z,102250.91
2019-03-19T18:22:48.510Z,102248.52
2019-03-19T18:25:17.601Z,102247.37
2019-03-19T18:27:46.677Z,102253.36
2019-03-19T18:30:16.271Z,102258.05
2019-03-19T18:32:45.370Z,102257.45
2019-03-19T18:35:14.427Z,102261.72
2019-03-19T18:37:43.515Z,102259.71
2019-03-19T18:40:12.585Z,102271.95
2019-03-19T18:42:41.692Z,102268.29
2019-03-19T18:45:11.177Z,102277.82
2019-03-19T18:47:40.255Z,102272.35
2019-03-19T18:50:11.385Z,102280.56
2019-03-19T18:52:40.469Z,102277.63
2019-03-19T18:55:09.684Z,102277.52
2019-03-19T18:57:41.334Z,102284.45
2019-03-19T19:00:12.056Z,102283.42
2019-03-19T19:02:49.787Z,102282.39
2019-03-19T19:05:12.409Z,102289.35
2019-03-19T19:07:41.498Z,102301.08
2019-03-19T19:10:11.251Z,102296.09
2019-03-19T19:12:40.349Z,102295.07
2019-03-19T19:15:11.346Z,102302.02
2019-03-19T19:17:40.428Z,102309.86
2019-03-19T19:20:10.364Z,102311.61
2019-03-19T19:22:39.452Z,102316.38
2019-03-19T19:25:10.289Z,102314.99
2019-03-19T19:27:39.383Z,102314.17
2019-03-19T19:30:11.244Z,102307.16
2019-03-19T19:32:40.337Z,102311.86
2019-03-19T19:35:09.393Z,102306.05
2019-03-19T19:37:38.506Z,102310.83
2019-03-19T19:40:09.166Z,102311.62
2019-03-19T19:42:38.241Z,102309.27
2019-03-19T19:45:07.589Z,102313.02
2019-03-19T19:47:36.670Z,102315.50
2019-03-19T19:50:07.693Z,102314.97
2019-03-19T19:52:36.778Z,102322.31
2019-03-19T19:55:06.081Z,102321.70
2019-03-19T19:57:35.218Z,102322.06
2019-03-19T20:00:05.050Z,102327.54
2019-03-19T20:02:34.135Z,102332.67
2019-03-19T20:05:03.766Z,102344.80
2019-03-19T20:07:32.967Z,102335.36
2019-03-19T20:10:02.011Z,102340.06
2019-03-19T20:12:31.013Z,102346.11
2019-03-19T20:15:00.011Z,102340.62
2019-03-19T20:17:29.150Z,102343.46
2019-03-19T20:19:58.195Z,102348.54
2019-03-19T20:22:27.276Z,102339.52
2019-03-19T20:24:56.338Z,102343.33
2019-03-19T20:27:25.411Z,102352.73
2019-03-19T20:29:54.464Z,102345.05
2019-03-19T20:32:23.540Z,102354.11
2019-03-19T20:34:52.600Z,102353.06
2019-03-19T20:37:21.616Z,102352.83
2019-03-19T20:39:50.683Z,102355.16
2019-03-19T20:42:19.770Z,102364.25
2019-03-19T20:44:48.831Z,102360.50
2019-03-19T20:47:17.905Z,102363.32
2019-03-19T20:49:48.016Z,102368.34
2019-03-19T20:52:17.288Z,102379.56
2019-03-19T20:54:46.353Z,102377.67
2019-03-19T20:57:15.426Z,102384.01
2019-03-19T20:59:44.496Z,102386.52
2019-03-19T21:02:13.566Z,102391.03
2019-03-19T21:04:42.654Z,102396.98
2019-03-19T21:07:11.618Z,102400.34
2019-03-19T21:09:40.695Z,102402.00
2019-03-19T21:12:09.744Z,102414.09
2019-03-19T21:14:38.815Z,102412.53
2019-03-19T21:17:07.885Z,102407.88
2019-03-19T21:19:37.014Z,102405.42
2019-03-19T21:22:06.019Z,102404.79
2019-03-19T21:24:35.095Z,102405.86
2019-03-19T21:27:04.165Z,102418.33
2019-03-19T21:29:33.252Z,102417.78
2019-03-19T21:32:02.306Z,102421.47
2019-03-19T21:34:31.386Z,102423.55
2019-03-19T21:37:00.443Z,102425.50
2019-03-19T21:39:29.534Z,102428.38
2019-03-19T21:41:58.587Z,102434.31
2019-03-19T21:44:27.604Z,102431.42
2019-03-19T21:46:56.673Z,102433.75
2019-03-19T21:49:25.772Z,102441.62
2019-03-19T21:51:54.841Z,102436.77
2019-03-19T21:54:23.850Z,102434.94
2019-03-19T21:56:52.903Z,102435.94
2019-03-19T21:59:21.984Z,102436.48
2019-03-19T22:01:51.039Z,102440.58
2019-03-19T22:04:20.117Z,102441.95
2019-03-19T22:06:49.088Z,102444.59
2019-03-19T22:09:18.173Z,102444.65
2019-03-19T22:11:47.232Z,102452.25
2019-03-19T22:14:16.242Z,102452.48
2019-03-19T22:16:45.293Z,102455.02
2019-03-19T22:19:14.379Z,102444.44
2019-03-19T22:21:43.447Z,102443.92
2019-03-19T22:24:12.537Z,102452.22
2019-03-19T22:26:41.598Z,102453.34
2019-03-19T22:29:12.623Z,102452.36
2019-03-19T22:31:41.460Z,102457.94
2019-03-19T22:34:14.305Z,102458.73
2019-03-19T22:36:41.325Z,102460.10
2019-03-19T22:39:10.412Z,102463.89
2019-03-19T22:41:39.473Z,102470.78
2019-03-19T22:44:08.538Z,102470.03
2019-03-19T22:46:37.604Z,102469.69
2019-03-19T22:49:06.720Z,102468.23
2019-03-19T22:51:35.697Z,102479.56
2019-03-19T22:54:04.886Z,102475.66
2019-03-19T22:56:34.126Z,102474.67
2019-03-19T22:59:03.213Z,102477.62
2019-03-19T23:01:32.280Z,102479.34
2019-03-19T23:04:01.351Z,102482.34
2019-03-19T23:06:30.419Z,102487.44
2019-03-19T23:08:59.492Z,102484.63
2019-03-19T23:11:28.559Z,102490.56
2019-03-19T23:13:57.633Z,102489.99
2019-03-19T23:16:26.678Z,102489.50
2019-03-19T23:18:55.767Z,102493.24
2019-03-19T23:21:24.823Z,102487.97
2019-03-19T23:23:53.900Z,102487.16
2019-03-19T23:26:22.969Z,102483.77
2019-03-19T23:28:52.028Z,102488.42
2019-03-19T23:31:21.090Z,102485.70
2019-03-19T23:33:50.171Z,102486.82
2019-03-19T23:36:19.233Z,102483.59
2019-03-19T23:38:48.244Z,102478.56
2019-03-19T23:41:17.307Z,102483.33
2019-03-19T23:43:46.316Z,102480.50
2019-03-19T23:46:15.378Z,102485.34
2019-03-19T23:48:44.408Z,102483.95
2019-03-19T23:51:13.410Z,102484.68
2019-03-19T23:53:42.411Z,102478.34
2019-03-19T23:56:11.486Z,102481.28
2019-03-19T23:58:40.552Z,102477.05
